sensor_id;sensor_type;location;lat;lon;timestamp;P1;durP1;ratioP1;P2;durP2;ratioP2
77822;SDS011;67013;49.730;17.292;2023-04-25T00:00:09;46.10;;;18.10;;
77822;SDS011;67013;49.730;17.292;2023-04-25T00:02:39;42.70;;;18.20;;
77822;SDS011;67013;49.730;17.292;2023-04-25T00:05:09;45.00;;;18.00;;
77822;SDS011;67013;49.730;17.292;2023-04-25T00:07:41;42.40;;;18.10;;
77822;SDS011;67013;49.730;17.292;2023-04-25T00:10:11;47.40;;;18.40;;
77822;SDS011;67013;49.730;17.292;2023-04-25T00:12:41;40.10;;;15.80;;
77822;SDS011;67013;49.730;17.292;2023-04-25T00:15:10;35.60;;;14.20;;
77822;SDS011;67013;49.730;17.292;2023-04-25T00:17:40;35.40;;;15.10;;
77822;SDS011;67013;49.730;17.292;2023-04-25T00:20:11;35.70;;;14.90;;
77822;SDS011;67013;49.730;17.292;2023-04-25T00:22:42;34.10;;;14.10;;
77822;SDS011;67013;49.730;17.292;2023-04-25T00:25:11;33.00;;;14.10;;
77822;SDS011;67013;49.730;17.292;2023-04-25T00:27:41;29.80;;;13.90;;
77822;SDS011;67013;49.730;17.292;2023-04-25T00:30:12;32.40;;;15.10;;
77822;SDS011;67013;49.730;17.292;2023-04-25T00:32:42;31.30;;;13.80;;
77822;SDS011;67013;49.730;17.292;2023-04-25T00:35:12;28.80;;;12.90;;
77822;SDS011;67013;49.730;17.292;2023-04-25T00:37:41;31.40;;;13.50;;
77822;SDS011;67013;49.730;17.292;2023-04-25T00:40:11;28.50;;;13.60;;
77822;SDS011;67013;49.730;17.292;2023-04-25T00:42:41;27.90;;;13.90;;
77822;SDS011;67013;49.730;17.292;2023-04-25T00:45:12;32.20;;;13.10;;
77822;SDS011;67013;49.730;17.292;2023-04-25T00:47:42;26.30;;;12.10;;
77822;SDS011;67013;49.730;17.292;2023-04-25T00:50:12;25.20;;;12.30;;
77822;SDS011;67013;49.730;17.292;2023-04-25T00:52:43;28.90;;;13.10;;
77822;SDS011;67013;49.730;17.292;2023-04-25T00:55:13;27.90;;;13.00;;
77822;SDS011;67013;49.730;17.292;2023-04-25T00:57:44;27.90;;;11.90;;
77822;SDS011;67013;49.730;17.292;2023-04-25T01:00:14;33.40;;;14.30;;
77822;SDS011;67013;49.730;17.292;2023-04-25T01:02:45;38.00;;;16.00;;
77822;SDS011;67013;49.730;17.292;2023-04-25T01:05:16;38.40;;;15.80;;
77822;SDS011;67013;49.730;17.292;2023-04-25T01:07:46;37.60;;;15.30;;
77822;SDS011;67013;49.730;17.292;2023-04-25T01:10:16;34.90;;;15.00;;
77822;SDS011;67013;49.730;17.292;2023-04-25T01:12:45;39.00;;;15.40;;
77822;SDS011;67013;49.730;17.292;2023-04-25T01:15:15;35.40;;;15.40;;
77822;SDS011;67013;49.730;17.292;2023-04-25T01:17:45;33.80;;;14.40;;
77822;SDS011;67013;49.730;17.292;2023-04-25T01:20:15;41.70;;;15.00;;
77822;SDS011;67013;49.730;17.292;2023-04-25T01:22:45;44.90;;;16.90;;
77822;SDS011;67013;49.730;17.292;2023-04-25T01:25:15;45.60;;;17.40;;
77822;SDS011;67013;49.730;17.292;2023-04-25T01:27:45;37.90;;;16.10;;
77822;SDS011;67013;49.730;17.292;2023-04-25T01:30:15;34.60;;;15.20;;
77822;SDS011;67013;49.730;17.292;2023-04-25T01:32:44;35.50;;;15.00;;
77822;SDS011;67013;49.730;17.292;2023-04-25T01:35:15;35.50;;;15.80;;
77822;SDS011;67013;49.730;17.292;2023-04-25T01:37:44;36.70;;;13.50;;
77822;SDS011;67013;49.730;17.292;2023-04-25T01:40:14;32.70;;;14.90;;
77822;SDS011;67013;49.730;17.292;2023-04-25T01:42:45;42.90;;;15.30;;
77822;SDS011;67013;49.730;17.292;2023-04-25T01:45:15;35.20;;;15.60;;
77822;SDS011;67013;49.730;17.292;2023-04-25T01:47:44;118.30;;;29.40;;
77822;SDS011;67013;49.730;17.292;2023-04-25T01:50:16;71.80;;;21.30;;
77822;SDS011;67013;49.730;17.292;2023-04-25T01:52:46;48.90;;;18.60;;
77822;SDS011;67013;49.730;17.292;2023-04-25T01:55:16;60.90;;;22.20;;
77822;SDS011;67013;49.730;17.292;2023-04-25T01:57:46;55.50;;;21.00;;
77822;SDS011;67013;49.730;17.292;2023-04-25T02:00:15;51.60;;;19.40;;
77822;SDS011;67013;49.730;17.292;2023-04-25T02:02:45;53.80;;;20.30;;
77822;SDS011;67013;49.730;17.292;2023-04-25T02:05:17;36.30;;;16.00;;
77822;SDS011;67013;49.730;17.292;2023-04-25T02:07:46;35.20;;;14.60;;
77822;SDS011;67013;49.730;17.292;2023-04-25T02:10:16;29.10;;;14.80;;
77822;SDS011;67013;49.730;17.292;2023-04-25T02:12:45;27.90;;;14.20;;
77822;SDS011;67013;49.730;17.292;2023-04-25T02:15:15;34.70;;;13.60;;
77822;SDS011;67013;49.730;17.292;2023-04-25T02:17:44;26.30;;;12.90;;
77822;SDS011;67013;49.730;17.292;2023-04-25T02:20:14;26.20;;;13.50;;
77822;SDS011;67013;49.730;17.292;2023-04-25T02:22:44;24.40;;;12.10;;
77822;SDS011;67013;49.730;17.292;2023-04-25T02:25:14;24.00;;;11.90;;
77822;SDS011;67013;49.730;17.292;2023-04-25T02:27:44;22.20;;;10.40;;
77822;SDS011;67013;49.730;17.292;2023-04-25T02:30:13;20.50;;;10.60;;
77822;SDS011;67013;49.730;17.292;2023-04-25T02:32:43;18.30;;;9.10;;
77822;SDS011;67013;49.730;17.292;2023-04-25T02:35:12;18.60;;;8.80;;
77822;SDS011;67013;49.730;17.292;2023-04-25T02:37:42;19.10;;;10.00;;
77822;SDS011;67013;49.730;17.292;2023-04-25T02:40:12;24.10;;;12.20;;
77822;SDS011;67013;49.730;17.292;2023-04-25T02:42:41;23.80;;;12.40;;
77822;SDS011;67013;49.730;17.292;2023-04-25T02:45:12;19.70;;;10.10;;
77822;SDS011;67013;49.730;17.292;2023-04-25T02:47:41;18.20;;;9.10;;
77822;SDS011;67013;49.730;17.292;2023-04-25T02:50:11;20.10;;;9.10;;
77822;SDS011;67013;49.730;17.292;2023-04-25T02:52:40;17.80;;;9.30;;
77822;SDS011;67013;49.730;17.292;2023-04-25T02:55:10;20.70;;;10.30;;
77822;SDS011;67013;49.730;17.292;2023-04-25T02:57:39;16.60;;;9.40;;
77822;SDS011;67013;49.730;17.292;2023-04-25T03:00:10;20.00;;;9.40;;
77822;SDS011;67013;49.730;17.292;2023-04-25T03:02:41;24.10;;;12.00;;
77822;SDS011;67013;49.730;17.292;2023-04-25T03:05:11;19.10;;;10.50;;
77822;SDS011;67013;49.730;17.292;2023-04-25T03:07:40;21.10;;;10.60;;
77822;SDS011;67013;49.730;17.292;2023-04-25T03:10:11;53.50;;;20.60;;
77822;SDS011;67013;49.730;17.292;2023-04-25T03:12:40;40.60;;;18.40;;
77822;SDS011;67013;49.730;17.292;2023-04-25T03:15:10;30.20;;;13.10;;
77822;SDS011;67013;49.730;17.292;2023-04-25T03:17:40;23.60;;;11.00;;
77822;SDS011;67013;49.730;17.292;2023-04-25T03:20:10;23.40;;;11.40;;
77822;SDS011;67013;49.730;17.292;2023-04-25T03:22:40;20.60;;;10.10;;
77822;SDS011;67013;49.730;17.292;2023-04-25T03:25:11;19.50;;;10.50;;
77822;SDS011;67013;49.730;17.292;2023-04-25T03:27:40;19.20;;;10.30;;
77822;SDS011;67013;49.730;17.292;2023-04-25T03:30:10;21.00;;;11.80;;
77822;SDS011;67013;49.730;17.292;2023-04-25T03:32:40;21.80;;;12.30;;
77822;SDS011;67013;49.730;17.292;2023-04-25T03:35:09;18.80;;;11.00;;
77822;SDS011;67013;49.730;17.292;2023-04-25T03:37:39;19.10;;;9.90;;
77822;SDS011;67013;49.730;17.292;2023-04-25T03:40:12;20.50;;;10.10;;
77822;SDS011;67013;49.730;17.292;2023-04-25T03:42:41;17.40;;;9.10;;
77822;SDS011;67013;49.730;17.292;2023-04-25T03:45:10;18.00;;;8.90;;
77822;SDS011;67013;49.730;17.292;2023-04-25T03:47:40;20.70;;;8.70;;
77822;SDS011;67013;49.730;17.292;2023-04-25T03:50:10;21.60;;;11.60;;
77822;SDS011;67013;49.730;17.292;2023-04-25T03:52:39;21.10;;;10.10;;
77822;SDS011;67013;49.730;17.292;2023-04-25T03:55:09;19.60;;;10.40;;
77822;SDS011;67013;49.730;17.292;2023-04-25T03:57:39;19.40;;;10.30;;
77822;SDS011;67013;49.730;17.292;2023-04-25T04:00:09;22.90;;;11.00;;
77822;SDS011;67013;49.730;17.292;2023-04-25T04:05:08;20.80;;;10.20;;
77822;SDS011;67013;49.730;17.292;2023-04-25T04:07:38;18.10;;;9.40;;
77822;SDS011;67013;49.730;17.292;2023-04-25T04:10:09;21.90;;;10.20;;
77822;SDS011;67013;49.730;17.292;2023-04-25T04:12:39;23.70;;;12.20;;
77822;SDS011;67013;49.730;17.292;2023-04-25T04:15:09;20.30;;;10.90;;
77822;SDS011;67013;49.730;17.292;2023-04-25T04:17:39;21.20;;;11.10;;
77822;SDS011;67013;49.730;17.292;2023-04-25T04:20:09;20.80;;;11.20;;
77822;SDS011;67013;49.730;17.292;2023-04-25T04:22:39;20.10;;;12.40;;
77822;SDS011;67013;49.730;17.292;2023-04-25T04:25:09;20.90;;;11.00;;
77822;SDS011;67013;49.730;17.292;2023-04-25T04:27:39;18.50;;;10.40;;
77822;SDS011;67013;49.730;17.292;2023-04-25T04:30:11;20.40;;;10.40;;
77822;SDS011;67013;49.730;17.292;2023-04-25T04:32:41;16.10;;;9.70;;
77822;SDS011;67013;49.730;17.292;2023-04-25T04:35:11;20.20;;;10.20;;
77822;SDS011;67013;49.730;17.292;2023-04-25T04:37:40;22.40;;;11.60;;
77822;SDS011;67013;49.730;17.292;2023-04-25T04:40:10;20.90;;;12.20;;
77822;SDS011;67013;49.730;17.292;2023-04-25T04:42:42;19.40;;;11.40;;
77822;SDS011;67013;49.730;17.292;2023-04-25T04:45:12;20.70;;;11.10;;
77822;SDS011;67013;49.730;17.292;2023-04-25T04:47:42;27.00;;;13.60;;
77822;SDS011;67013;49.730;17.292;2023-04-25T04:50:12;28.90;;;15.20;;
77822;SDS011;67013;49.730;17.292;2023-04-25T04:52:42;19.70;;;10.80;;
77822;SDS011;67013;49.730;17.292;2023-04-25T04:55:12;17.90;;;9.80;;
77822;SDS011;67013;49.730;17.292;2023-04-25T04:57:41;18.30;;;11.30;;
77822;SDS011;67013;49.730;17.292;2023-04-25T05:00:12;22.40;;;11.00;;
77822;SDS011;67013;49.730;17.292;2023-04-25T05:02:42;18.90;;;9.90;;
77822;SDS011;67013;49.730;17.292;2023-04-25T05:05:11;18.70;;;10.50;;
77822;SDS011;67013;49.730;17.292;2023-04-25T05:07:41;18.60;;;10.60;;
77822;SDS011;67013;49.730;17.292;2023-04-25T05:10:10;17.60;;;9.60;;
77822;SDS011;67013;49.730;17.292;2023-04-25T05:12:40;17.30;;;9.50;;
77822;SDS011;67013;49.730;17.292;2023-04-25T05:15:10;20.70;;;9.80;;
77822;SDS011;67013;49.730;17.292;2023-04-25T05:17:39;19.80;;;9.70;;
77822;SDS011;67013;49.730;17.292;2023-04-25T05:20:09;27.20;;;12.70;;
77822;SDS011;67013;49.730;17.292;2023-04-25T05:22:40;25.50;;;12.80;;
77822;SDS011;67013;49.730;17.292;2023-04-25T05:25:10;24.00;;;11.20;;
77822;SDS011;67013;49.730;17.292;2023-04-25T05:27:39;16.90;;;9.80;;
77822;SDS011;67013;49.730;17.292;2023-04-25T05:30:09;18.50;;;10.30;;
77822;SDS011;67013;49.730;17.292;2023-04-25T05:32:39;19.80;;;13.20;;
77822;SDS011;67013;49.730;17.292;2023-04-25T05:35:09;17.30;;;10.70;;
77822;SDS011;67013;49.730;17.292;2023-04-25T05:37:38;20.30;;;10.60;;
77822;SDS011;67013;49.730;17.292;2023-04-25T05:40:09;16.60;;;8.90;;
77822;SDS011;67013;49.730;17.292;2023-04-25T05:42:39;16.80;;;8.80;;
77822;SDS011;67013;49.730;17.292;2023-04-25T05:45:11;13.30;;;9.30;;
77822;SDS011;67013;49.730;17.292;2023-04-25T05:47:40;15.60;;;8.70;;
77822;SDS011;67013;49.730;17.292;2023-04-25T05:50:10;16.10;;;9.20;;
77822;SDS011;67013;49.730;17.292;2023-04-25T05:52:40;16.20;;;9.00;;
77822;SDS011;67013;49.730;17.292;2023-04-25T05:55:10;17.20;;;9.30;;
77822;SDS011;67013;49.730;17.292;2023-04-25T05:57:40;20.10;;;9.80;;
77822;SDS011;67013;49.730;17.292;2023-04-25T06:00:13;21.50;;;11.60;;
77822;SDS011;67013;49.730;17.292;2023-04-25T06:02:43;17.80;;;9.80;;
77822;SDS011;67013;49.730;17.292;2023-04-25T06:05:12;18.60;;;10.30;;
77822;SDS011;67013;49.730;17.292;2023-04-25T06:07:42;18.40;;;10.30;;
77822;SDS011;67013;49.730;17.292;2023-04-25T06:10:11;18.10;;;11.40;;
77822;SDS011;67013;49.730;17.292;2023-04-25T06:12:41;20.10;;;12.00;;
77822;SDS011;67013;49.730;17.292;2023-04-25T06:15:11;20.80;;;11.90;;
77822;SDS011;67013;49.730;17.292;2023-04-25T06:17:40;18.70;;;10.80;;
77822;SDS011;67013;49.730;17.292;2023-04-25T06:20:11;27.90;;;13.40;;
77822;SDS011;67013;49.730;17.292;2023-04-25T06:22:40;25.60;;;11.90;;
77822;SDS011;67013;49.730;17.292;2023-04-25T06:25:10;19.20;;;11.40;;
77822;SDS011;67013;49.730;17.292;2023-04-25T06:27:39;17.40;;;10.10;;
77822;SDS011;67013;49.730;17.292;2023-04-25T06:30:10;20.40;;;11.10;;
77822;SDS011;67013;49.730;17.292;2023-04-25T06:32:39;18.10;;;9.80;;
77822;SDS011;67013;49.730;17.292;2023-04-25T06:35:09;20.60;;;11.40;;
77822;SDS011;67013;49.730;17.292;2023-04-25T06:37:39;17.80;;;10.30;;
77822;SDS011;67013;49.730;17.292;2023-04-25T06:40:09;19.30;;;10.10;;
77822;SDS011;67013;49.730;17.292;2023-04-25T06:42:39;17.70;;;9.70;;
77822;SDS011;67013;49.730;17.292;2023-04-25T06:45:09;17.30;;;9.70;;
77822;SDS011;67013;49.730;17.292;2023-04-25T06:47:39;17.00;;;9.80;;
77822;SDS011;67013;49.730;17.292;2023-04-25T06:50:09;17.30;;;9.70;;
77822;SDS011;67013;49.730;17.292;2023-04-25T06:52:39;18.30;;;10.20;;
77822;SDS011;67013;49.730;17.292;2023-04-25T06:55:09;16.40;;;9.90;;
77822;SDS011;67013;49.730;17.292;2023-04-25T06:57:38;20.20;;;11.30;;
77822;SDS011;67013;49.730;17.292;2023-04-25T07:00:09;18.20;;;10.20;;
77822;SDS011;67013;49.730;17.292;2023-04-25T07:02:39;17.60;;;9.60;;
77822;SDS011;67013;49.730;17.292;2023-04-25T07:05:10;17.80;;;9.50;;
77822;SDS011;67013;49.730;17.292;2023-04-25T07:07:39;21.50;;;10.10;;
77822;SDS011;67013;49.730;17.292;2023-04-25T07:10:09;19.90;;;11.00;;
77822;SDS011;67013;49.730;17.292;2023-04-25T07:12:38;20.40;;;10.40;;
77822;SDS011;67013;49.730;17.292;2023-04-25T07:15:09;21.00;;;11.00;;
77822;SDS011;67013;49.730;17.292;2023-04-25T07:17:38;20.20;;;10.90;;
77822;SDS011;67013;49.730;17.292;2023-04-25T07:20:09;18.00;;;10.40;;
77822;SDS011;67013;49.730;17.292;2023-04-25T07:22:39;21.10;;;11.40;;
77822;SDS011;67013;49.730;17.292;2023-04-25T07:25:09;21.10;;;10.70;;
77822;SDS011;67013;49.730;17.292;2023-04-25T07:27:38;17.60;;;10.60;;
77822;SDS011;67013;49.730;17.292;2023-04-25T07:30:10;20.10;;;10.80;;
77822;SDS011;67013;49.730;17.292;2023-04-25T07:32:40;21.90;;;12.20;;
77822;SDS011;67013;49.730;17.292;2023-04-25T07:35:09;21.90;;;11.30;;
77822;SDS011;67013;49.730;17.292;2023-04-25T07:37:39;18.00;;;10.90;;
77822;SDS011;67013;49.730;17.292;2023-04-25T07:40:09;19.10;;;11.50;;
77822;SDS011;67013;49.730;17.292;2023-04-25T07:42:39;19.80;;;10.60;;
77822;SDS011;67013;49.730;17.292;2023-04-25T07:45:09;20.50;;;10.40;;
77822;SDS011;67013;49.730;17.292;2023-04-25T07:47:39;20.30;;;10.90;;
77822;SDS011;67013;49.730;17.292;2023-04-25T07:50:09;22.40;;;12.00;;
77822;SDS011;67013;49.730;17.292;2023-04-25T07:52:39;19.60;;;11.60;;
77822;SDS011;67013;49.730;17.292;2023-04-25T07:55:08;19.20;;;12.00;;
77822;SDS011;67013;49.730;17.292;2023-04-25T07:57:38;21.10;;;11.50;;
77822;SDS011;67013;49.730;17.292;2023-04-25T08:00:08;19.80;;;11.00;;
77822;SDS011;67013;49.730;17.292;2023-04-25T08:02:39;20.80;;;11.10;;
77822;SDS011;67013;49.730;17.292;2023-04-25T08:05:09;21.80;;;11.10;;
77822;SDS011;67013;49.730;17.292;2023-04-25T08:07:40;25.60;;;12.10;;
77822;SDS011;67013;49.730;17.292;2023-04-25T08:10:10;20.40;;;11.40;;
77822;SDS011;67013;49.730;17.292;2023-04-25T08:12:40;20.40;;;11.70;;
77822;SDS011;67013;49.730;17.292;2023-04-25T08:15:09;23.90;;;12.30;;
77822;SDS011;67013;49.730;17.292;2023-04-25T08:17:40;18.80;;;11.70;;
77822;SDS011;67013;49.730;17.292;2023-04-25T08:20:11;18.80;;;11.70;;
77822;SDS011;67013;49.730;17.292;2023-04-25T08:22:41;17.60;;;11.60;;
77822;SDS011;67013;49.730;17.292;2023-04-25T08:25:10;20.20;;;11.80;;
77822;SDS011;67013;49.730;17.292;2023-04-25T08:27:40;21.30;;;11.70;;
77822;SDS011;67013;49.730;17.292;2023-04-25T08:30:11;21.80;;;12.20;;
77822;SDS011;67013;49.730;17.292;2023-04-25T08:32:41;22.30;;;12.50;;
77822;SDS011;67013;49.730;17.292;2023-04-25T08:35:10;18.80;;;11.40;;
77822;SDS011;67013;49.730;17.292;2023-04-25T08:37:40;21.00;;;11.60;;
77822;SDS011;67013;49.730;17.292;2023-04-25T08:40:10;19.90;;;11.50;;
77822;SDS011;67013;49.730;17.292;2023-04-25T08:42:42;18.80;;;11.90;;
77822;SDS011;67013;49.730;17.292;2023-04-25T08:45:11;18.70;;;10.90;;
77822;SDS011;67013;49.730;17.292;2023-04-25T08:47:41;21.30;;;11.50;;
77822;SDS011;67013;49.730;17.292;2023-04-25T08:50:13;18.40;;;11.40;;
77822;SDS011;67013;49.730;17.292;2023-04-25T08:52:43;19.80;;;11.60;;
77822;SDS011;67013;49.730;17.292;2023-04-25T08:55:14;15.50;;;9.30;;
77822;SDS011;67013;49.730;17.292;2023-04-25T08:57:44;19.10;;;10.60;;
77822;SDS011;67013;49.730;17.292;2023-04-25T09:00:15;16.90;;;9.60;;
77822;SDS011;67013;49.730;17.292;2023-04-25T09:02:46;17.00;;;12.10;;
77822;SDS011;67013;49.730;17.292;2023-04-25T09:05:16;22.60;;;16.20;;
77822;SDS011;67013;49.730;17.292;2023-04-25T09:07:46;17.60;;;11.20;;
77822;SDS011;67013;49.730;17.292;2023-04-25T09:10:15;15.70;;;10.20;;
77822;SDS011;67013;49.730;17.292;2023-04-25T09:12:45;14.20;;;8.70;;
77822;SDS011;67013;49.730;17.292;2023-04-25T09:15:31;16.40;;;9.30;;
77822;SDS011;67013;49.730;17.292;2023-04-25T09:18:14;17.00;;;9.50;;
77822;SDS011;67013;49.730;17.292;2023-04-25T09:20:52;15.30;;;9.10;;
77822;SDS011;67013;49.730;17.292;2023-04-25T09:23:23;16.60;;;9.50;;
77822;SDS011;67013;49.730;17.292;2023-04-25T09:25:53;16.30;;;9.70;;
77822;SDS011;67013;49.730;17.292;2023-04-25T09:28:26;15.20;;;9.90;;
77822;SDS011;67013;49.730;17.292;2023-04-25T09:30:56;15.00;;;9.10;;
77822;SDS011;67013;49.730;17.292;2023-04-25T09:33:29;15.90;;;9.80;;
77822;SDS011;67013;49.730;17.292;2023-04-25T09:36:04;16.00;;;8.40;;
77822;SDS011;67013;49.730;17.292;2023-04-25T09:38:41;11.50;;;7.50;;
77822;SDS011;67013;49.730;17.292;2023-04-25T09:41:12;11.90;;;7.00;;
77822;SDS011;67013;49.730;17.292;2023-04-25T09:43:49;11.90;;;6.90;;
77822;SDS011;67013;49.730;17.292;2023-04-25T09:46:19;12.30;;;7.50;;
77822;SDS011;67013;49.730;17.292;2023-04-25T09:48:51;13.40;;;7.70;;
77822;SDS011;67013;49.730;17.292;2023-04-25T09:51:21;11.80;;;7.10;;
77822;SDS011;67013;49.730;17.292;2023-04-25T09:53:55;11.90;;;7.00;;
77822;SDS011;67013;49.730;17.292;2023-04-25T09:56:24;11.80;;;6.60;;
77822;SDS011;67013;49.730;17.292;2023-04-25T09:58:59;12.50;;;6.60;;
77822;SDS011;67013;49.730;17.292;2023-04-25T10:01:29;12.60;;;6.90;;
77822;SDS011;67013;49.730;17.292;2023-04-25T10:03:59;10.10;;;6.10;;
77822;SDS011;67013;49.730;17.292;2023-04-25T10:06:33;10.70;;;6.20;;
77822;SDS011;67013;49.730;17.292;2023-04-25T10:09:05;10.90;;;6.30;;
77822;SDS011;67013;49.730;17.292;2023-04-25T10:11:35;10.60;;;6.20;;
77822;SDS011;67013;49.730;17.292;2023-04-25T10:14:06;12.30;;;6.40;;
77822;SDS011;67013;49.730;17.292;2023-04-25T10:16:36;12.20;;;6.40;;
77822;SDS011;67013;49.730;17.292;2023-04-25T10:19:07;11.50;;;6.80;;
77822;SDS011;67013;49.730;17.292;2023-04-25T10:21:38;11.30;;;6.00;;
77822;SDS011;67013;49.730;17.292;2023-04-25T10:24:13;10.50;;;6.70;;
77822;SDS011;67013;49.730;17.292;2023-04-25T10:26:43;12.40;;;7.40;;
77822;SDS011;67013;49.730;17.292;2023-04-25T10:29:16;13.10;;;6.80;;
77822;SDS011;67013;49.730;17.292;2023-04-25T10:31:51;13.90;;;8.10;;
77822;SDS011;67013;49.730;17.292;2023-04-25T10:34:25;15.20;;;7.90;;
77822;SDS011;67013;49.730;17.292;2023-04-25T10:37:09;12.40;;;8.00;;
77822;SDS011;67013;49.730;17.292;2023-04-25T10:39:40;14.30;;;9.40;;
77822;SDS011;67013;49.730;17.292;2023-04-25T10:42:10;13.90;;;8.30;;
77822;SDS011;67013;49.730;17.292;2023-04-25T10:44:40;16.90;;;8.70;;
77822;SDS011;67013;49.730;17.292;2023-04-25T10:47:44;12.60;;;8.80;;
77822;SDS011;67013;49.730;17.292;2023-04-25T10:50:15;13.10;;;8.50;;
77822;SDS011;67013;49.730;17.292;2023-04-25T10:52:45;12.60;;;8.30;;
77822;SDS011;67013;49.730;17.292;2023-04-25T10:55:14;13.90;;;8.60;;
77822;SDS011;67013;49.730;17.292;2023-04-25T10:57:44;11.20;;;7.20;;
77822;SDS011;67013;49.730;17.292;2023-04-25T11:00:17;14.40;;;7.40;;
77822;SDS011;67013;49.730;17.292;2023-04-25T11:02:51;13.10;;;7.20;;
77822;SDS011;67013;49.730;17.292;2023-04-25T11:05:27;13.60;;;6.20;;
77822;SDS011;67013;49.730;17.292;2023-04-25T11:07:59;8.30;;;5.20;;
77822;SDS011;67013;49.730;17.292;2023-04-25T11:10:30;9.20;;;5.20;;
77822;SDS011;67013;49.730;17.292;2023-04-25T11:15:29;10.50;;;5.20;;
77822;SDS011;67013;49.730;17.292;2023-04-25T11:17:59;8.40;;;5.10;;
77822;SDS011;67013;49.730;17.292;2023-04-25T11:20:29;8.50;;;4.70;;
77822;SDS011;67013;49.730;17.292;2023-04-25T11:22:59;7.40;;;5.10;;
77822;SDS011;67013;49.730;17.292;2023-04-25T11:25:28;7.30;;;4.40;;
77822;SDS011;67013;49.730;17.292;2023-04-25T11:27:58;8.40;;;4.60;;
77822;SDS011;67013;49.730;17.292;2023-04-25T11:30:29;9.40;;;4.90;;
77822;SDS011;67013;49.730;17.292;2023-04-25T11:32:58;7.20;;;4.10;;
77822;SDS011;67013;49.730;17.292;2023-04-25T11:35:29;8.10;;;4.50;;
77822;SDS011;67013;49.730;17.292;2023-04-25T11:38:00;7.70;;;4.00;;
77822;SDS011;67013;49.730;17.292;2023-04-25T11:40:31;7.80;;;4.90;;
77822;SDS011;67013;49.730;17.292;2023-04-25T11:43:00;9.00;;;4.90;;
77822;SDS011;67013;49.730;17.292;2023-04-25T11:45:30;10.20;;;4.90;;
77822;SDS011;67013;49.730;17.292;2023-04-25T11:48:00;9.00;;;5.40;;
77822;SDS011;67013;49.730;17.292;2023-04-25T11:50:30;8.30;;;4.00;;
77822;SDS011;67013;49.730;17.292;2023-04-25T11:53:00;6.40;;;3.90;;
77822;SDS011;67013;49.730;17.292;2023-04-25T11:55:29;7.20;;;4.10;;
77822;SDS011;67013;49.730;17.292;2023-04-25T11:58:00;7.70;;;3.90;;
77822;SDS011;67013;49.730;17.292;2023-04-25T12:00:30;9.20;;;4.50;;
77822;SDS011;67013;49.730;17.292;2023-04-25T12:03:00;6.70;;;3.80;;
77822;SDS011;67013;49.730;17.292;2023-04-25T12:05:31;8.30;;;4.30;;
77822;SDS011;67013;49.730;17.292;2023-04-25T12:08:13;7.90;;;4.70;;
77822;SDS011;67013;49.730;17.292;2023-04-25T12:10:44;7.60;;;4.80;;
77822;SDS011;67013;49.730;17.292;2023-04-25T12:13:22;7.80;;;4.90;;
77822;SDS011;67013;49.730;17.292;2023-04-25T12:15:53;7.50;;;4.80;;
77822;SDS011;67013;49.730;17.292;2023-04-25T12:18:24;7.80;;;5.00;;
77822;SDS011;67013;49.730;17.292;2023-04-25T12:20:54;8.10;;;4.70;;
77822;SDS011;67013;49.730;17.292;2023-04-25T12:23:28;8.20;;;4.50;;
77822;SDS011;67013;49.730;17.292;2023-04-25T12:25:58;10.10;;;6.10;;
77822;SDS011;67013;49.730;17.292;2023-04-25T12:28:29;11.90;;;7.60;;
77822;SDS011;67013;49.730;17.292;2023-04-25T12:31:01;11.20;;;7.40;;
77822;SDS011;67013;49.730;17.292;2023-04-25T12:36:02;9.90;;;6.60;;
77822;SDS011;67013;49.730;17.292;2023-04-25T12:38:37;8.90;;;4.60;;
77822;SDS011;67013;49.730;17.292;2023-04-25T12:41:07;9.60;;;5.40;;
77822;SDS011;67013;49.730;17.292;2023-04-25T12:43:37;8.70;;;5.00;;
77822;SDS011;67013;49.730;17.292;2023-04-25T12:46:07;7.20;;;4.80;;
77822;SDS011;67013;49.730;17.292;2023-04-25T12:48:36;7.60;;;4.60;;
77822;SDS011;67013;49.730;17.292;2023-04-25T12:51:06;8.40;;;4.50;;
77822;SDS011;67013;49.730;17.292;2023-04-25T12:53:35;8.10;;;5.40;;
77822;SDS011;67013;49.730;17.292;2023-04-25T12:56:07;8.40;;;5.00;;
77822;SDS011;67013;49.730;17.292;2023-04-25T12:58:37;8.70;;;4.40;;
77822;SDS011;67013;49.730;17.292;2023-04-25T13:01:07;8.50;;;5.00;;
77822;SDS011;67013;49.730;17.292;2023-04-25T13:03:36;9.20;;;4.40;;
77822;SDS011;67013;49.730;17.292;2023-04-25T13:06:06;8.50;;;4.60;;
77822;SDS011;67013;49.730;17.292;2023-04-25T13:08:36;7.00;;;4.40;;
77822;SDS011;67013;49.730;17.292;2023-04-25T13:11:05;8.20;;;3.90;;
77822;SDS011;67013;49.730;17.292;2023-04-25T13:13:35;8.70;;;4.60;;
77822;SDS011;67013;49.730;17.292;2023-04-25T13:16:06;9.70;;;4.90;;
77822;SDS011;67013;49.730;17.292;2023-04-25T13:18:36;8.60;;;5.10;;
77822;SDS011;67013;49.730;17.292;2023-04-25T13:21:05;7.80;;;4.10;;
77822;SDS011;67013;49.730;17.292;2023-04-25T13:26:05;8.20;;;4.00;;
77822;SDS011;67013;49.730;17.292;2023-04-25T13:28:34;8.40;;;4.40;;
77822;SDS011;67013;49.730;17.292;2023-04-25T13:31:04;9.50;;;4.40;;
77822;SDS011;67013;49.730;17.292;2023-04-25T13:33:34;7.10;;;3.60;;
77822;SDS011;67013;49.730;17.292;2023-04-25T13:36:04;5.50;;;3.80;;
77822;SDS011;67013;49.730;17.292;2023-04-25T13:41:03;5.90;;;3.40;;
77822;SDS011;67013;49.730;17.292;2023-04-25T13:43:33;6.30;;;3.30;;
77822;SDS011;67013;49.730;17.292;2023-04-25T13:46:03;7.10;;;4.20;;
77822;SDS011;67013;49.730;17.292;2023-04-25T13:48:32;5.20;;;3.40;;
77822;SDS011;67013;49.730;17.292;2023-04-25T13:51:02;6.90;;;3.50;;
77822;SDS011;67013;49.730;17.292;2023-04-25T13:53:32;6.00;;;3.40;;
77822;SDS011;67013;49.730;17.292;2023-04-25T13:56:01;4.70;;;3.00;;
77822;SDS011;67013;49.730;17.292;2023-04-25T13:58:31;5.50;;;2.50;;
77822;SDS011;67013;49.730;17.292;2023-04-25T14:01:00;5.70;;;3.20;;
77822;SDS011;67013;49.730;17.292;2023-04-25T14:03:31;5.30;;;2.90;;
77822;SDS011;67013;49.730;17.292;2023-04-25T14:06:01;6.50;;;3.40;;
77822;SDS011;67013;49.730;17.292;2023-04-25T14:08:31;5.50;;;3.10;;
77822;SDS011;67013;49.730;17.292;2023-04-25T14:11:00;6.90;;;3.40;;
77822;SDS011;67013;49.730;17.292;2023-04-25T14:13:30;5.00;;;2.90;;
77822;SDS011;67013;49.730;17.292;2023-04-25T14:15:59;5.10;;;2.80;;
77822;SDS011;67013;49.730;17.292;2023-04-25T14:18:29;6.80;;;3.20;;
77822;SDS011;67013;49.730;17.292;2023-04-25T14:20:59;6.20;;;3.50;;
77822;SDS011;67013;49.730;17.292;2023-04-25T14:23:28;6.30;;;3.40;;
77822;SDS011;67013;49.730;17.292;2023-04-25T14:25:58;7.40;;;3.40;;
77822;SDS011;67013;49.730;17.292;2023-04-25T14:28:27;6.80;;;2.90;;
77822;SDS011;67013;49.730;17.292;2023-04-25T14:30:57;5.80;;;2.90;;
77822;SDS011;67013;49.730;17.292;2023-04-25T14:33:27;6.20;;;3.10;;
77822;SDS011;67013;49.730;17.292;2023-04-25T14:35:57;7.10;;;3.40;;
77822;SDS011;67013;49.730;17.292;2023-04-25T14:38:26;7.60;;;3.50;;
77822;SDS011;67013;49.730;17.292;2023-04-25T14:40:56;7.40;;;3.80;;
77822;SDS011;67013;49.730;17.292;2023-04-25T14:43:25;6.50;;;3.30;;
77822;SDS011;67013;49.730;17.292;2023-04-25T14:45:56;6.60;;;3.90;;
77822;SDS011;67013;49.730;17.292;2023-04-25T14:48:26;6.20;;;4.00;;